Time;durP1;ratioP1;P1;durP2;ratioP2;P2;SDS_P1;SDS_P2;PMS_P1;PMS_P2;Temp;Humidity;BMP_temperature;BMP_pressure;BME280_temperature;BME280_humidity;BME280_pressure;Samples;Min_cycle;Max_cycle;Signal;HPM_P1;HPM_P2
2022/04/22 00:00:06;;;;;;;5.93;3.10;;;10.30;99.90;;;;;;4928516;29;20232;-73
2022/04/22 00:02:31;;;;;;;4.60;2.60;;;10.20;99.90;;;;;;4916851;29;20605;-72
2022/04/22 00:04:56;;;;;;;5.80;2.80;;;10.10;99.90;;;;;;4933874;28;20215;-72
2022/04/22 00:07:22;;;;;;;6.00;2.80;;;10.10;99.90;;;;;;4933845;29;20184;-73
2022/04/22 00:09:47;;;;;;;4.90;3.20;;;10.10;99.90;;;;;;4916485;29;20917;-73
2022/04/22 00:12:13;;;;;;;5.80;3.03;;;10.10;99.90;;;;;;4933800;28;20302;-73
2022/04/22 00:14:38;;;;;;;6.53;2.87;;;10.00;99.90;;;;;;4933686;29;20290;-72
2022/04/22 00:17:04;;;;;;;7.13;3.33;;;10.00;99.90;;;;;;4916735;29;20614;-73
2022/04/22 00:19:30;;;;;;;5.63;2.73;;;10.00;99.90;;;;;;4932945;29;20207;-72
2022/04/22 00:21:55;;;;;;;6.67;2.87;;;9.90;99.90;;;;;;4917176;29;20195;-72
2022/04/22 00:24:21;;;;;;;8.10;2.97;;;9.80;99.90;;;;;;4933202;28;20614;-73
2022/04/22 00:26:47;;;;;;;8.10;2.70;;;9.80;99.90;;;;;;4916577;29;20223;-73
2022/04/22 00:29:12;;;;;;;11.17;3.67;;;9.70;99.90;;;;;;4925213;29;20267;-73
2022/04/22 00:31:38;;;;;;;10.97;3.10;;;9.60;99.90;;;;;;4933569;29;20581;-73
2022/04/22 00:34:04;;;;;;;8.00;3.57;;;9.60;99.90;;;;;;4933555;28;20227;-73
2022/04/22 00:36:29;;;;;;;7.20;2.97;;;9.60;99.90;;;;;;4933750;29;20184;-72
2022/04/22 00:38:56;;;;;;;9.00;4.13;;;9.60;99.90;;;;;;4915674;29;20211;-72
2022/04/22 00:41:22;;;;;;;5.53;3.67;;;9.50;99.90;;;;;;4933516;28;20351;-73
2022/04/22 00:43:53;;;;;;;5.70;3.60;;;9.60;99.90;;;;;;4916550;29;20207;-72
2022/04/22 00:46:18;;;;;;;5.43;3.87;;;9.60;99.90;;;;;;4933577;28;20187;-72
2022/04/22 00:48:44;;;;;;;7.53;3.20;;;9.50;99.90;;;;;;4916210;29;20246;-73
2022/04/22 00:51:10;;;;;;;10.70;4.60;;;9.50;99.90;;;;;;4933504;29;20216;-73
2022/04/22 00:53:46;;;;;;;7.60;4.03;;;9.40;99.90;;;;;;4936033;28;20243;-73
2022/04/22 00:56:12;;;;;;;8.53;4.27;;;9.30;99.90;;;;;;4920215;29;20227;-74
2022/04/22 00:58:39;;;;;;;8.13;4.03;;;9.10;99.90;;;;;;4912652;29;20208;-73
2022/04/22 01:01:05;;;;;;;9.47;4.63;;;9.10;99.90;;;;;;4937535;29;20192;-73
2022/04/22 01:03:31;;;;;;;10.77;4.43;;;9.00;99.90;;;;;;4937391;29;20198;-73
2022/04/22 01:11:35;;;;;;;7.37;4.17;;;8.90;99.90;;;;;;4936879;28;20314;-73
2022/04/22 01:14:01;;;;;;;7.37;4.70;;;8.90;99.90;;;;;;4937463;29;20215;-73
2022/04/22 01:16:28;;;;;;;9.97;4.97;;;8.80;99.90;;;;;;4936724;28;20220;-73
2022/04/22 01:18:54;;;;;;;9.10;4.07;;;8.80;99.90;;;;;;4936649;29;20187;-73
2022/04/22 01:21:20;;;;;;;9.27;4.13;;;8.80;99.90;;;;;;4937003;29;20851;-72
2022/04/22 01:23:45;;;;;;;10.20;4.53;;;8.80;99.90;;;;;;4928957;29;20216;-73
2022/04/22 01:26:12;;;;;;;8.70;4.20;;;8.70;99.90;;;;;;4936748;29;20647;-72
2022/04/22 01:28:38;;;;;;;7.10;4.17;;;8.70;99.90;;;;;;4925989;29;20272;-72
2022/04/22 01:31:04;;;;;;;7.13;4.00;;;8.70;99.90;;;;;;4937254;29;20201;-73
2022/04/22 01:33:29;;;;;;;10.97;4.80;;;8.80;99.90;;;;;;4937100;29;20653;-72
2022/04/22 01:35:55;;;;;;;8.27;4.43;;;8.70;99.90;;;;;;4936307;28;20228;-72
2022/04/22 01:38:20;;;;;;;8.30;4.37;;;8.70;99.90;;;;;;4936283;29;20725;-73
2022/04/22 01:40:46;;;;;;;7.27;4.33;;;8.70;99.90;;;;;;4921921;28;20683;-73
2022/04/22 01:43:11;;;;;;;11.20;4.93;;;8.60;99.90;;;;;;4936946;29;20198;-73
2022/04/22 01:45:37;;;;;;;13.73;5.77;;;8.60;99.90;;;;;;4936904;29;20211;-73
2022/04/22 01:48:02;;;;;;;11.47;5.07;;;8.50;99.90;;;;;;4935664;28;20274;-73
2022/04/22 01:50:28;;;;;;;9.13;5.57;;;8.40;99.90;;;;;;4936495;29;20208;-73
2022/04/22 01:52:53;;;;;;;10.27;5.50;;;8.30;99.90;;;;;;4936282;28;20884;-73
2022/04/22 01:55:19;;;;;;;13.13;5.17;;;8.40;99.90;;;;;;4936665;29;20216;-73
2022/04/22 01:57:45;;;;;;;12.43;5.30;;;8.40;99.90;;;;;;4933836;29;20199;-73
2022/04/22 02:00:11;;;;;;;10.57;5.27;;;8.50;99.90;;;;;;4932915;29;20219;-73
2022/04/22 02:02:36;;;;;;;12.20;4.83;;;8.40;99.90;;;;;;4937664;29;20216;-73
2022/04/22 02:05:03;;;;;;;9.97;5.50;;;8.50;99.90;;;;;;4936648;28;20226;-72
2022/04/22 02:07:28;;;;;;;8.50;4.90;;;8.50;99.90;;;;;;4936954;29;20226;-73
2022/04/22 02:09:54;;;;;;;10.13;5.57;;;8.60;99.90;;;;;;4921354;29;20295;-73
2022/04/22 02:12:19;;;;;;;11.93;5.60;;;8.60;99.90;;;;;;4919645;29;20631;-73
2022/04/22 02:14:45;;;;;;;12.73;5.67;;;8.70;99.90;;;;;;4918079;29;20205;-73
2022/04/22 02:17:10;;;;;;;10.77;5.00;;;8.70;99.90;;;;;;4925477;29;20223;-72
2022/04/22 02:19:36;;;;;;;9.70;5.70;;;8.70;99.90;;;;;;4930428;29;20215;-73
2022/04/22 02:22:02;;;;;;;11.27;6.10;;;8.70;99.90;;;;;;4910125;29;20665;-73
2022/04/22 02:24:27;;;;;;;9.87;5.93;;;8.60;99.90;;;;;;4901225;29;20231;-72
2022/04/22 02:29:37;;;;;;;10.60;5.83;;;8.70;99.90;;;;;;4916522;29;20271;-72
2022/04/22 02:32:03;;;;;;;10.47;5.73;;;8.70;99.90;;;;;;4916792;29;20227;-72
2022/04/22 02:34:29;;;;;;;12.40;6.23;;;8.70;99.90;;;;;;4922030;29;20298;-73
2022/04/22 02:36:54;;;;;;;13.03;5.67;;;8.70;99.90;;;;;;4935551;29;20725;-73
2022/04/22 02:39:20;;;;;;;13.00;6.50;;;8.80;99.90;;;;;;4917279;29;20220;-73
2022/04/22 02:47:14;;;;;;;12.47;5.87;;;8.60;99.90;;;;;;4935113;29;20243;-72
2022/04/22 02:49:44;;;;;;;12.40;6.30;;;8.60;99.90;;;;;;4934108;29;20663;-72
2022/04/22 02:52:15;;;;;;;13.47;5.93;;;8.70;99.90;;;;;;4934862;29;20208;-72
2022/04/22 02:54:40;;;;;;;13.30;6.33;;;8.70;99.90;;;;;;4917772;29;20218;-72
2022/04/22 02:57:07;;;;;;;16.47;6.53;;;8.60;99.90;;;;;;4934907;29;20308;-72
2022/04/22 02:59:33;;;;;;;12.37;6.13;;;8.60;99.90;;;;;;4933850;29;20219;-73
2022/04/22 03:01:59;;;;;;;10.43;5.87;;;8.50;99.90;;;;;;4934701;29;20204;-73
2022/04/22 03:04:26;;;;;;;12.23;5.73;;;8.60;99.90;;;;;;4934313;29;20294;-73
2022/04/22 03:06:51;;;;;;;11.10;5.77;;;8.60;99.90;;;;;;4935018;29;20184;-72
2022/04/22 03:09:17;;;;;;;8.80;5.47;;;8.50;99.90;;;;;;4933720;29;20259;-72
2022/04/22 03:11:43;;;;;;;14.07;5.73;;;8.50;99.90;;;;;;4933861;29;20270;-73
2022/04/22 03:14:08;;;;;;;11.80;5.60;;;8.40;99.90;;;;;;4917337;29;20218;-73
2022/04/22 03:16:37;;;;;;;13.20;5.40;;;8.40;99.90;;;;;;4934035;29;20290;-72
2022/04/22 03:19:03;;;;;;;11.43;6.00;;;8.30;99.90;;;;;;4934195;29;20188;-73
2022/04/22 03:21:28;;;;;;;12.10;6.07;;;8.30;99.90;;;;;;4934254;29;20206;-73
2022/04/22 03:23:54;;;;;;;8.87;5.90;;;8.40;99.90;;;;;;4934244;29;20215;-72
2022/04/22 03:26:19;;;;;;;16.43;6.50;;;8.30;99.90;;;;;;4934315;29;20585;-72
2022/04/22 03:28:46;;;;;;;15.47;6.90;;;8.20;99.90;;;;;;4933342;29;20204;-73
2022/04/22 03:31:12;;;;;;;14.83;6.60;;;8.20;99.90;;;;;;4934202;29;20196;-73
2022/04/22 03:33:37;;;;;;;11.63;5.97;;;8.20;99.90;;;;;;4934579;29;20182;-73
2022/04/22 03:36:03;;;;;;;10.17;6.00;;;8.20;99.90;;;;;;4933746;29;20238;-73
2022/04/22 03:38:29;;;;;;;13.97;6.50;;;8.20;99.90;;;;;;4933103;29;20216;-72
2022/04/22 03:40:54;;;;;;;12.17;5.13;;;7.90;99.90;;;;;;4933663;29;20220;-72
2022/04/22 03:43:22;;;;;;;14.90;5.37;;;7.80;99.90;;;;;;4933737;29;20192;-72
2022/04/22 03:45:48;;;;;;;11.17;6.10;;;7.90;99.90;;;;;;4926863;29;20685;-73
2022/04/22 03:48:14;;;;;;;9.37;6.00;;;8.10;99.90;;;;;;4933396;29;20212;-73
2022/04/22 03:50:40;;;;;;;13.57;6.17;;;8.10;99.90;;;;;;4933809;29;20212;-72
2022/04/22 03:53:06;;;;;;;11.60;6.27;;;8.10;99.90;;;;;;4933747;29;20593;-72
2022/04/22 03:55:32;;;;;;;9.57;6.27;;;8.20;99.90;;;;;;4916444;29;20215;-72
2022/04/22 03:58:10;;;;;;;10.87;5.93;;;8.20;99.90;;;;;;4933902;29;20696;-73
2022/04/22 04:00:54;;;;;;;13.53;6.07;;;8.30;99.90;;;;;;4934131;29;20211;-73
2022/04/22 04:03:22;;;;;;;13.93;6.50;;;8.40;99.90;;;;;;4916631;29;20701;-73
2022/04/22 04:05:51;;;;;;;10.40;6.40;;;8.50;99.90;;;;;;4926087;29;20274;-73
2022/04/22 04:08:21;;;;;;;9.67;6.20;;;8.50;99.90;;;;;;4915912;29;20238;-73
2022/04/22 04:16:16;;;;;;;9.50;6.30;;;8.60;99.90;;;;;;4933976;29;20251;-73
2022/04/22 04:18:42;;;;;;;10.57;5.70;;;8.60;99.90;;;;;;4933176;29;20188;-73
2022/04/22 04:23:55;;;;;;;12.17;6.37;;;8.60;99.90;;;;;;4926739;29;20263;-73
2022/04/22 04:26:22;;;;;;;12.50;6.80;;;8.50;99.90;;;;;;4916191;29;20689;-72
2022/04/22 04:28:48;;;;;;;10.73;6.30;;;8.60;99.90;;;;;;4929913;29;20267;-73
2022/04/22 04:31:15;;;;;;;12.20;6.43;;;8.60;99.90;;;;;;4933535;29;20661;-73
2022/04/22 04:33:41;;;;;;;14.40;7.03;;;8.80;99.90;;;;;;4916722;29;20188;-72
2022/04/22 04:36:09;;;;;;;12.10;6.57;;;8.70;99.90;;;;;;4936290;23;20306;-78
2022/04/22 04:38:36;;;;;;;11.50;6.83;;;8.70;99.90;;;;;;4917114;29;20218;-78
2022/04/22 04:41:02;;;;;;;13.83;6.97;;;8.50;99.90;;;;;;4934779;29;20207;-78
2022/04/22 04:43:28;;;;;;;14.37;7.30;;;8.40;99.90;;;;;;4934792;29;20215;-79
2022/04/22 04:45:53;;;;;;;10.83;7.30;;;8.60;99.90;;;;;;4917877;29;20191;-79
2022/04/22 04:48:19;;;;;;;11.33;6.77;;;8.40;99.90;;;;;;4933707;29;20771;-79
2022/04/22 04:50:45;;;;;;;12.93;7.30;;;8.50;99.90;;;;;;4917357;29;20298;-79
2022/04/22 04:53:12;;;;;;;16.80;6.37;;;8.60;99.90;;;;;;4917936;29;20587;-79
2022/04/22 04:55:38;;;;;;;13.13;7.50;;;8.60;99.90;;;;;;4934575;28;20216;-79
2022/04/22 04:58:04;;;;;;;11.80;6.97;;;8.70;99.90;;;;;;4934267;29;20180;-78
2022/04/22 05:00:30;;;;;;;13.63;7.63;;;8.80;99.90;;;;;;4918183;29;20224;-79
2022/04/22 05:02:56;;;;;;;17.47;8.53;;;8.80;99.90;;;;;;4934710;29;20207;-77
2022/04/22 05:05:21;;;;;;;15.33;7.73;;;8.90;99.90;;;;;;4934748;29;20586;-79
2022/04/22 05:07:48;;;;;;;12.00;6.70;;;9.20;99.90;;;;;;4934606;28;20211;-77
2022/04/22 05:10:15;;;;;;;12.87;7.27;;;9.30;99.90;;;;;;4935718;29;20330;-78
2022/04/22 05:12:42;;;;;;;14.13;7.90;;;9.40;99.90;;;;;;4939614;29;20219;-78
2022/04/22 05:15:08;;;;;;;14.50;8.00;;;9.30;99.90;;;;;;4935912;28;20211;-78
2022/04/22 05:17:34;;;;;;;13.97;7.80;;;9.30;99.90;;;;;;4935738;29;20226;-77
2022/04/22 05:20:00;;;;;;;15.73;7.43;;;9.60;99.90;;;;;;4938338;28;20215;-78
2022/04/22 05:22:26;;;;;;;15.27;7.47;;;10.00;99.90;;;;;;4921829;29;20215;-78
2022/04/22 05:24:51;;;;;;;11.50;6.57;;;11.00;99.90;;;;;;4937552;29;20204;-79
2022/04/22 05:27:17;;;;;;;19.03;7.67;;;11.00;99.90;;;;;;4936255;28;20548;-79
2022/04/22 05:32:39;;;;;;;11.63;5.53;;;15.00;99.90;;;;;;4934308;28;20230;-78
2022/04/22 05:35:09;;;;;;;13.32;6.10;;;17.10;99.90;;;;;;4934695;29;20592;-79
2022/04/22 05:37:51;;;;;;;12.80;5.78;;;18.10;99.90;;;;;;4940743;28;20243;-80
2022/04/22 05:40:18;;;;;;;13.18;5.90;;;19.00;99.90;;;;;;4925365;29;20192;-80
2022/04/22 05:42:44;;;;;;;8.50;5.95;;;19.10;99.90;;;;;;4938461;29;20188;-77
2022/04/22 05:45:11;;;;;;;13.85;6.82;;;19.10;99.90;;;;;;4937518;28;20215;-78
2022/04/22 05:47:38;;;;;;;11.15;6.50;;;19.10;99.90;;;;;;4937194;29;20252;-79
2022/04/22 05:50:05;;;;;;;9.27;6.30;;;19.90;99.90;;;;;;4938251;28;20215;-78
2022/04/22 05:52:35;;;;;;;10.85;6.57;;;17.90;99.90;;;;;;4937826;29;20224;-77
2022/04/22 05:55:02;;;;;;;9.98;6.80;;;16.30;99.90;;;;;;4938281;29;20659;-79
2022/04/22 05:57:30;;;;;;;9.10;6.55;;;16.80;99.90;;;;;;4915566;29;20307;-79
2022/04/22 05:59:55;;;;;;;11.40;6.55;;;17.10;99.90;;;;;;4937163;29;20219;-79
2022/04/22 06:02:21;;;;;;;11.02;6.43;;;16.00;99.90;;;;;;4937028;28;20215;-78
2022/04/22 06:04:46;;;;;;;10.60;6.65;;;15.30;99.90;;;;;;4917492;29;20287;-79
2022/04/22 06:07:12;;;;;;;11.50;6.25;;;15.10;99.90;;;;;;4936015;28;20207;-76
2022/04/22 06:12:22;;;;;;;12.95;6.60;;;17.60;99.90;;;;;;4937971;29;20218;-78
2022/04/22 06:14:50;;;;;;;12.30;6.63;;;17.40;99.90;;;;;;4940924;28;20298;-79
2022/04/22 06:17:16;;;;;;;13.15;6.15;;;16.90;99.90;;;;;;4937919;29;20266;-78
2022/04/22 06:19:42;;;;;;;10.88;6.55;;;18.10;99.90;;;;;;4920649;29;20286;-80
2022/04/22 06:22:21;;;;;;;10.77;6.10;;;18.90;99.90;;;;;;4935651;29;20180;-80
2022/04/22 06:24:46;;;;;;;7.57;5.72;;;17.30;99.90;;;;;;4936543;29;20207;-79
2022/04/22 06:27:12;;;;;;;10.80;6.80;;;16.00;99.90;;;;;;4931525;28;20681;-78
2022/04/22 06:29:38;;;;;;;11.50;6.28;;;14.70;99.90;;;;;;4933570;29;20274;-78
2022/04/22 06:32:04;;;;;;;10.68;6.22;;;14.10;99.90;;;;;;4935408;28;20231;-78
2022/04/22 06:34:30;;;;;;;11.82;6.88;;;13.50;99.90;;;;;;4918154;29;20716;-78
2022/04/22 06:36:56;;;;;;;13.20;6.25;;;13.30;99.90;;;;;;4918768;29;20605;-78
2022/04/22 06:39:22;;;;;;;13.50;7.30;;;13.00;99.90;;;;;;4934233;28;20220;-77
2022/04/22 06:47:16;;;;;;;13.30;7.17;;;12.10;99.90;;;;;;4935337;29;20347;-78
2022/04/22 06:49:41;;;;;;;11.77;6.57;;;11.80;99.90;;;;;;4926213;29;20649;-77
2022/04/22 06:52:08;;;;;;;11.93;7.10;;;11.70;99.90;;;;;;4935059;29;20207;-77
2022/04/22 06:54:34;;;;;;;9.67;5.67;;;12.00;99.90;;;;;;4912959;29;20602;-77
2022/04/22 06:57:02;;;;;;;9.10;6.33;;;11.80;99.90;;;;;;4932447;28;20207;-78
2022/04/22 06:59:28;;;;;;;11.53;7.20;;;11.20;99.90;;;;;;4924207;29;20212;-78
2022/04/22 07:01:54;;;;;;;15.43;7.10;;;11.10;99.90;;;;;;4934978;28;20216;-77
2022/04/22 07:04:19;;;;;;;9.63;6.87;;;11.20;99.90;;;;;;4935496;29;20195;-78
2022/04/22 07:06:45;;;;;;;12.07;6.43;;;11.30;99.90;;;;;;4918261;29;20172;-77
2022/04/22 07:09:11;;;;;;;10.20;5.97;;;11.30;99.90;;;;;;4916771;29;20247;-78
2022/04/22 07:11:38;;;;;;;12.83;7.53;;;11.30;99.90;;;;;;4934744;29;20250;-79
2022/04/22 07:14:04;;;;;;;9.57;6.23;;;11.30;99.90;;;;;;4927147;29;20217;-78
2022/04/22 07:16:30;;;;;;;14.83;6.23;;;11.10;99.90;;;;;;4933419;29;20211;-78
2022/04/22 07:18:57;;;;;;;10.70;5.93;;;10.90;99.90;;;;;;4929260;29;20183;-81
2022/04/22 07:21:26;;;;;;;13.63;6.37;;;11.20;99.90;;;;;;4935767;28;20223;-80
2022/04/22 07:23:53;;;;;;;13.17;6.80;;;11.10;99.90;;;;;;4918338;29;20295;-79
2022/04/22 07:26:20;;;;;;;13.67;6.40;;;10.90;99.90;;;;;;4917338;29;20251;-78
2022/04/22 07:28:47;;;;;;;11.27;6.47;;;10.90;99.90;;;;;;4928949;29;20207;-78
2022/04/22 07:31:15;;;;;;;10.63;6.47;;;11.30;99.90;;;;;;4917141;28;20602;-78
2022/04/22 07:33:41;;;;;;;14.23;7.10;;;11.50;99.90;;;;;;4934258;29;20191;-79
2022/04/22 07:36:07;;;;;;;11.03;6.17;;;11.80;99.90;;;;;;4929266;29;20224;-79
2022/04/22 07:38:33;;;;;;;11.00;6.77;;;12.00;99.90;;;;;;4926567;28;20239;-79
2022/04/22 07:40:58;;;;;;;9.80;6.57;;;12.20;99.90;;;;;;4937616;29;20235;-78
2022/04/22 07:48:55;;;;;;;13.20;6.87;;;11.80;99.90;;;;;;4920255;29;20178;-78
2022/04/22 07:51:27;;;;;;;10.57;6.90;;;11.40;99.90;;;;;;4933623;28;20223;-77
2022/04/22 07:53:55;;;;;;;12.03;7.20;;;11.20;99.90;;;;;;4933830;29;20207;-79
2022/04/22 07:56:21;;;;;;;15.83;7.77;;;11.20;99.90;;;;;;4918210;29;20219;-76
2022/04/22 07:58:46;;;;;;;14.03;7.87;;;11.00;99.90;;;;;;4907168;29;20685;-74
2022/04/22 08:01:12;;;;;;;12.53;8.10;;;10.90;99.90;;;;;;4922412;28;20687;-73
2022/04/22 08:03:37;;;;;;;13.43;8.57;;;11.00;99.90;;;;;;4926545;29;20188;-76
2022/04/22 08:06:06;;;;;;;13.30;8.30;;;11.00;99.90;;;;;;4917005;29;20227;-75
2022/04/22 08:08:31;;;;;;;13.53;8.40;;;11.00;99.90;;;;;;4917433;29;20235;-78
2022/04/22 08:10:57;;;;;;;15.23;8.67;;;11.00;99.90;;;;;;4916259;29;20640;-76
2022/04/22 08:13:24;;;;;;;11.97;8.80;;;11.00;99.90;;;;;;4916065;29;20829;-77
2022/04/22 08:15:50;;;;;;;17.90;9.83;;;11.10;99.90;;;;;;4929189;29;20254;-75
2022/04/22 08:18:16;;;;;;;15.33;9.60;;;11.30;99.90;;;;;;4927040;29;20645;-75
2022/04/22 08:20:41;;;;;;;16.60;8.77;;;11.20;99.90;;;;;;4927139;29;20214;-75
2022/04/22 08:23:07;;;;;;;14.47;9.37;;;11.20;99.90;;;;;;4934514;29;20572;-75
2022/04/22 08:25:32;;;;;;;14.83;9.77;;;11.30;99.90;;;;;;4916186;29;20731;-74
2022/04/22 08:27:58;;;;;;;17.37;10.13;;;11.40;99.90;;;;;;4929361;29;21066;-73
2022/04/22 08:30:24;;;;;;;15.80;9.93;;;11.70;99.90;;;;;;4915642;29;20207;-75
2022/04/22 08:32:49;;;;;;;15.43;9.40;;;11.80;99.90;;;;;;4933822;28;20226;-77
2022/04/22 08:35:15;;;;;;;14.37;9.60;;;12.10;99.90;;;;;;4934283;29;20223;-79
2022/04/22 08:37:45;;;;;;;17.33;10.60;;;12.00;99.90;;;;;;4932901;28;20219;-75
2022/04/22 08:40:11;;;;;;;14.77;9.30;;;12.10;99.90;;;;;;4908887;29;20215;-74
2022/04/22 08:42:39;;;;;;;16.70;10.27;;;12.20;99.90;;;;;;4933946;29;20210;-75
2022/04/22 08:45:06;;;;;;;19.27;10.10;;;12.20;99.90;;;;;;4934134;28;20735;-74
2022/04/22 08:50:16;;;;;;;16.93;10.87;;;12.30;99.90;;;;;;4936052;28;20271;-75
2022/04/22 08:52:47;;;;;;;19.07;10.77;;;12.40;99.90;;;;;;4933412;29;20208;-74
2022/04/22 08:55:13;;;;;;;25.70;15.03;;;12.60;99.90;;;;;;4933652;28;20212;-73
2022/04/22 08:57:39;;;;;;;21.60;11.37;;;12.80;99.90;;;;;;4913513;29;20180;-74
2022/04/22 09:00:07;;;;;;;14.00;9.97;;;12.90;99.90;;;;;;4936954;29;20215;-76
2022/04/22 09:02:33;;;;;;;15.60;10.37;;;13.10;99.90;;;;;;4935513;28;20291;-76
2022/04/22 09:04:58;;;;;;;17.53;11.13;;;13.20;99.90;;;;;;4920124;29;20211;-72
2022/04/22 09:07:28;;;;;;;14.77;9.97;;;13.30;99.90;;;;;;4933226;29;20311;-77
2022/04/22 09:09:54;;;;;;;14.90;9.40;;;13.50;99.90;;;;;;4921219;29;20187;-76
2022/04/22 09:12:25;;;;;;;13.27;10.03;;;13.20;99.90;;;;;;4934079;29;20708;-76
2022/04/22 09:14:57;;;;;;;14.60;9.17;;;13.30;99.90;;;;;;4906729;29;20267;-77
2022/04/22 09:17:28;;;;;;;13.20;9.30;;;13.20;99.90;;;;;;4919800;29;20215;-77
2022/04/22 09:19:57;;;;;;;17.93;10.50;;;13.00;99.90;;;;;;4936910;28;20222;-78
2022/04/22 09:22:24;;;;;;;18.87;10.43;;;12.60;99.90;;;;;;4921532;29;20187;-76
2022/04/22 09:24:59;;;;;;;16.63;10.10;;;12.50;99.90;;;;;;4922445;29;20633;-77
2022/04/22 09:27:42;;;;;;;15.90;10.43;;;12.70;99.90;;;;;;4931131;28;20226;-78
2022/04/22 09:30:09;;;;;;;17.83;10.43;;;12.70;99.90;;;;;;4935970;29;20222;-73
2022/04/22 09:32:37;;;;;;;13.10;10.23;;;12.50;99.90;;;;;;4919303;29;20232;-78
2022/04/22 09:35:16;;;;;;;13.00;9.77;;;12.60;99.90;;;;;;4919193;29;20604;-77
2022/04/22 09:43:23;;;;;;;16.47;10.43;;;12.90;99.90;;;;;;4937558;28;20267;-74
2022/04/22 09:45:53;;;;;;;16.93;10.70;;;12.90;99.90;;;;;;4921427;29;20198;-78
2022/04/22 09:48:20;;;;;;;16.40;10.97;;;12.90;99.90;;;;;;4918905;29;20211;-78
2022/04/22 09:50:47;;;;;;;17.20;11.20;;;13.10;99.90;;;;;;4936260;28;20208;-77
2022/04/22 09:53:14;;;;;;;18.77;10.93;;;12.90;99.90;;;;;;4936321;29;20314;-76
2022/04/22 09:55:53;;;;;;;15.57;10.83;;;13.30;99.90;;;;;;4919091;29;20266;-77
2022/04/22 09:58:23;;;;;;;15.77;10.80;;;13.10;99.90;;;;;;4930430;29;20636;-76
2022/04/22 10:00:56;;;;;;;16.63;11.43;;;13.20;99.90;;;;;;4921882;29;20653;-77
2022/04/22 10:03:23;;;;;;;21.23;11.90;;;13.50;99.90;;;;;;4935691;28;20595;-76
2022/04/22 10:05:51;;;;;;;17.97;12.43;;;13.60;99.90;;;;;;4935576;29;20299;-76
2022/04/22 10:08:19;;;;;;;17.97;12.17;;;13.50;99.90;;;;;;4930275;29;20307;-76
2022/04/22 10:10:45;;;;;;;17.80;12.43;;;13.80;99.90;;;;;;4935876;29;20239;-76
2022/04/22 10:13:17;;;;;;;20.10;13.70;;;13.60;99.90;;;;;;4935855;28;20207;-76
2022/04/22 10:15:44;;;;;;;22.87;13.70;;;13.50;99.90;;;;;;4918957;29;20259;-77
2022/04/22 10:18:13;;;;;;;19.43;14.47;;;13.30;99.90;;;;;;4935132;29;20247;-74
2022/04/22 10:20:40;;;;;;;20.23;14.67;;;13.40;99.90;;;;;;4927824;28;20227;-74
2022/04/22 10:23:06;;;;;;;21.50;14.80;;;13.10;99.90;;;;;;4918819;29;20226;-77
2022/04/22 10:25:33;;;;;;;20.90;15.80;;;13.20;99.90;;;;;;4936824;28;20246;-77
2022/04/22 10:28:03;;;;;;;22.40;15.43;;;13.20;99.90;;;;;;4916754;29;20722;-75
2022/04/22 10:30:29;;;;;;;22.17;14.97;;;13.20;99.90;;;;;;4919102;29;20239;-73
2022/04/22 10:32:56;;;;;;;19.03;15.27;;;13.10;99.90;;;;;;4935733;28;20223;-76
2022/04/22 10:35:23;;;;;;;18.93;14.60;;;13.10;99.90;;;;;;4951849;23;21862;-74
2022/04/22 10:37:49;;;;;;;19.40;15.40;;;13.30;99.90;;;;;;4917307;29;20326;-73
2022/04/22 10:40:18;;;;;;;20.07;15.33;;;13.30;99.90;;;;;;4916982;29;20179;-76
2022/04/22 10:42:43;;;;;;;17.80;14.33;;;13.50;99.90;;;;;;4935001;29;20179;-75
2022/04/22 10:47:55;;;;;;;18.97;16.07;;;13.40;99.90;;;;;;4926857;29;20275;-73
2022/04/22 10:50:37;;;;;;;18.67;14.47;;;13.40;99.90;;;;;;4933547;28;20266;-75
2022/04/22 10:53:04;;;;;;;21.07;14.80;;;13.50;99.90;;;;;;4934088;29;20929;-73
2022/04/22 10:55:37;;;;;;;23.10;16.00;;;13.50;99.90;;;;;;4933903;28;20246;-74
2022/04/22 10:58:21;;;;;;;22.97;16.43;;;13.30;99.90;;;;;;4932090;29;20215;-75
2022/04/22 11:00:49;;;;;;;20.43;15.63;;;13.40;99.90;;;;;;4933946;29;20717;-76
2022/04/22 11:03:19;;;;;;;22.97;16.73;;;13.40;99.90;;;;;;4932224;28;20258;-72
2022/04/22 11:05:46;;;;;;;20.40;16.10;;;13.30;99.90;;;;;;4931972;29;20211;-72
2022/04/22 11:08:28;;;;;;;20.37;15.43;;;13.30;99.90;;;;;;4938445;28;20214;-70
2022/04/22 11:10:54;;;;;;;26.93;16.93;;;13.20;99.90;;;;;;4940117;28;20302;-71
2022/04/22 11:13:42;;;;;;;19.97;16.80;;;13.20;99.90;;;;;;4933008;28;20303;-71
2022/04/22 11:16:12;;;;;;;22.07;16.47;;;13.10;99.90;;;;;;4923275;29;20203;-71
2022/04/22 11:18:42;;;;;;;23.57;17.13;;;13.20;99.90;;;;;;4933214;29;20665;-72
2022/04/22 11:21:36;;;;;;;19.90;16.23;;;13.20;99.90;;;;;;4934001;28;20223;-72
2022/04/22 11:24:09;;;;;;;21.37;17.03;;;13.20;99.90;;;;;;4916757;29;20265;-72
2022/04/22 11:26:35;;;;;;;22.07;17.73;;;13.40;99.90;;;;;;4933908;28;20248;-70
2022/04/22 11:29:06;;;;;;;26.17;17.47;;;13.30;99.90;;;;;;4933359;29;20207;-72
2022/04/22 11:31:34;;;;;;;20.87;17.27;;;13.20;99.90;;;;;;4933689;28;20302;-70
2022/04/22 11:34:12;;;;;;;21.97;17.20;;;13.20;99.90;;;;;;4934420;29;20179;-71
2022/04/22 11:36:45;;;;;;;21.53;18.10;;;13.20;99.90;;;;;;4933732;29;20350;-70
2022/04/22 11:39:28;;;;;;;28.20;19.00;;;13.20;99.90;;;;;;4916128;29;20243;-73
2022/04/22 11:41:57;;;;;;;26.90;20.13;;;13.10;99.90;;;;;;4907290;29;20221;-78
2022/04/22 11:44:24;;;;;;;27.37;19.30;;;13.10;99.90;;;;;;4920700;29;20748;-77
2022/04/22 11:46:51;;;;;;;29.77;21.53;;;13.00;99.90;;;;;;4932076;29;20302;-74
2022/04/22 11:49:17;;;;;;;29.63;22.80;;;12.90;99.90;;;;;;4925918;28;20240;-73
2022/04/22 11:51:42;;;;;;;32.83;23.90;;;12.90;99.90;;;;;;4914316;29;20203;-73
2022/04/22 11:54:08;;;;;;;33.37;23.73;;;12.90;99.90;;;;;;4931924;29;20307;-72
2022/04/22 11:56:36;;;;;;;43.20;30.20;;;12.90;99.90;;;;;;4932413;28;20221;-73
2022/04/22 11:59:02;;;;;;;30.27;24.67;;;12.80;99.90;;;;;;4927578;29;20645;-74
2022/04/22 12:08:00;;;;;;;36.80;25.80;;;12.90;99.90;;;;;;4933924;28;20267;-74
2022/04/22 12:10:00;;;;;;;35.33;25.90;;;12.80;99.90;;;;;;4920266;29;20172;-74
2022/04/22 12:12:28;;;;;;;31.83;24.50;;;12.80;99.90;;;;;;4915860;29;20225;-72
2022/04/22 12:15:05;;;;;;;47.50;32.63;;;12.70;99.90;;;;;;4933442;28;20207;-73
2022/04/22 12:17:31;;;;;;;34.27;26.70;;;12.40;99.90;;;;;;4915878;29;20238;-74
2022/04/22 12:19:57;;;;;;;37.17;27.17;;;12.30;99.90;;;;;;4932288;28;20868;-73
2022/04/22 12:22:24;;;;;;;33.53;25.47;;;12.40;99.90;;;;;;4932818;29;20259;-73
2022/04/22 12:25:12;;;;;;;37.10;26.93;;;12.30;99.90;;;;;;4933256;29;20203;-73
2022/04/22 12:27:39;;;;;;;36.33;27.43;;;12.30;99.90;;;;;;4908263;29;20268;-73
2022/04/22 12:30:14;;;;;;;35.80;25.80;;;12.40;99.90;;;;;;4932374;29;20239;-73
2022/04/22 12:32:41;;;;;;;34.63;25.83;;;12.50;99.90;;;;;;4932682;28;20593;-73
2022/04/22 12:35:13;;;;;;;37.23;26.87;;;12.70;99.90;;;;;;4932600;29;20286;-74
2022/04/22 12:37:46;;;;;;;34.70;26.23;;;12.70;99.90;;;;;;4931946;28;20215;-72
2022/04/22 12:40:14;;;;;;;32.93;24.97;;;12.90;99.90;;;;;;4915024;29;20187;-73
2022/04/22 12:42:39;;;;;;;37.63;25.67;;;13.00;99.90;;;;;;4916124;29;20574;-76
2022/04/22 12:53:50;;;;;;;32.87;23.23;;;13.10;99.90;;;;;;4936451;29;20321;-72
2022/04/22 12:56:16;;;;;;;29.93;22.07;;;13.20;99.90;;;;;;4936103;28;20602;-72
2022/04/22 12:59:05;;;;;;;36.13;24.10;;;13.30;99.90;;;;;;4930436;29;20207;-77
2022/04/22 13:01:39;;;;;;;29.57;22.57;;;13.50;99.90;;;;;;4928344;28;20685;-75
2022/04/22 13:04:06;;;;;;;29.00;21.20;;;13.70;99.90;;;;;;4936237;29;20175;-74
2022/04/22 13:06:51;;;;;;;28.47;21.53;;;14.10;99.90;;;;;;4885585;29;20220;-74
2022/04/22 13:09:18;;;;;;;28.03;20.73;;;14.20;99.90;;;;;;4920875;29;20662;-73
2022/04/22 13:11:44;;;;;;;29.77;22.10;;;14.20;99.90;;;;;;4935639;29;20246;-75
2022/04/22 13:14:11;;;;;;;26.87;20.80;;;14.30;99.90;;;;;;4936067;28;20219;-71
2022/04/22 13:16:37;;;;;;;26.63;20.33;;;14.20;99.90;;;;;;4935797;29;20211;-72
2022/04/22 13:19:03;;;;;;;27.57;21.30;;;14.30;99.90;;;;;;4911076;29;20186;-74
2022/04/22 13:21:29;;;;;;;30.07;21.67;;;14.40;99.90;;;;;;4911209;29;20619;-71
2022/04/22 13:23:55;;;;;;;27.13;19.67;;;14.50;99.90;;;;;;4931661;29;20213;-73
2022/04/22 13:26:22;;;;;;;25.30;18.80;;;14.60;99.90;;;;;;4915397;29;20226;-74
2022/04/22 13:28:48;;;;;;;23.02;17.98;;;14.50;99.90;;;;;;4929862;29;20267;-73
2022/04/22 13:31:15;;;;;;;22.73;16.30;;;14.50;99.90;;;;;;4918100;28;20195;-74
2022/04/22 13:33:40;;;;;;;21.63;17.03;;;14.40;99.90;;;;;;4911001;29;20278;-72
2022/04/22 13:36:11;;;;;;;24.37;18.73;;;14.60;99.90;;;;;;4935758;29;20303;-73
2022/04/22 13:38:37;;;;;;;23.10;18.17;;;14.40;99.90;;;;;;4927260;29;20211;-72
2022/04/22 13:41:05;;;;;;;23.93;18.63;;;14.10;99.90;;;;;;4935644;29;20212;-73
2022/04/22 13:43:31;;;;;;;24.33;17.80;;;14.00;99.90;;;;;;4935647;28;20246;-71